White Mountain, AK

12:49 AM AKDT on April 28, 2017 (GMT -0800)
White Mountain

Weather History for PAWM - November, 2013

Change the Weather History Date:

Tuesday, November 12, 2013

  Actual Average (PAOM) Record (PAOM)
Temperature  
Mean Temperature 30 °F -  
Max Temperature 36 °F 25 °F 38 °F (1937)
Min Temperature 26 °F 13 °F -9 °F (1975)
Degree Days  
Heating Degree Days 34    
Moisture  
Dew Point 29 °F    
Average Humidity 98    
Maximum Humidity 100    
Minimum Humidity 93    
Precipitation  
Precipitation 0.01 in - - ()
Sea Level Pressure  
Sea Level Pressure 29.81 in    
Wind  
Wind Speed 16 mph (SSE)    
Max Wind Speed 24 mph    
Max Gust Speed 33 mph    
Visibility 2 miles    
Events Fog , Rain , Snow    
Averages and records for this station are not official NWS values.
T = Trace of Precipitation, MM = Missing Value Source: NWS Daily Summary

Daily Weather History Graph

Daily Weather History Graph

Search for Another Location

Airport or City:

Trip Planner

Search our weather history database for the weather conditions in past years. The results will help you decide how hot, cold, wet, or windy it might be!

Date:

Astronomy

Nov. 12, 2013 Rise Set
Actual Time 10:19 AM AKST 4:55 PM AKST
Civil Twilight 9:18 AM AKST 5:56 PM AKST
Nautical Twilight 8:17 AM AKST 6:57 PM AKST
Astronomical Twilight 7:19 AM AKST 7:54 PM AKST
Moon 3:52 PM AKST (11/12) 3:34 AM AKST (11/12)
Length of Visible Light 8h 37m
Length of Day
6h 36m
Waxing Gibbous, 77% of the Moon is Illuminated
Nov 12
Waxing Gibbous
Nov 17
Full
Nov 25
Last Quarter
Dec 2
New
Dec 9
First Quarter

Hourly Weather History & Observations

Time (AKST) Temp. Windchill Dew Point Humidity Pressure Visibility Wind Dir Wind Speed Gust Speed Precip Events Conditions
12:04 AM 26.6 °F 16.2 °F 24.8 °F 93% 30.15 in 2.5 mi South 11.5 mph - 0.00 in Snow Light Snow
12:12 AM 26.6 °F 17.5 °F 24.8 °F 93% 30.15 in 3.0 mi South 9.2 mph - 0.00 in Snow Light Snow
12:21 AM 26.6 °F 16.2 °F 26.6 °F 100% 30.15 in 2.5 mi South 11.5 mph - 0.00 in Snow Light Snow
12:28 AM 26.6 °F 15.7 °F 26.6 °F 100% 30.15 in 2.0 mi South 12.7 mph - 0.00 in Snow Light Snow
12:32 AM 26.6 °F 16.8 °F 26.6 °F 100% 30.15 in 1.5 mi South 10.4 mph - 0.00 in Snow Light Snow
12:49 AM 28.4 °F 18.0 °F 26.6 °F 93% 30.14 in 1.0 mi South 12.7 mph - 0.01 in Snow Light Snow
12:58 AM 28.0 °F 17.0 °F 27.0 °F 96% 30.18 in 1.2 mi South 13.8 mph - 0.01 in Snow Light Snow
1:23 AM 28.4 °F 17.0 °F 26.6 °F 93% 30.14 in 2.0 mi South 15.0 mph 19.6 mph 0.00 in Snow Light Snow
1:41 AM 28.4 °F 17.5 °F 26.6 °F 93% 30.13 in 1.8 mi South 13.8 mph 21.9 mph 0.00 in Snow Light Snow
1:58 AM 28.0 °F 16.1 °F 27.0 °F 96% 30.16 in 1.5 mi South 16.1 mph 24.2 mph 0.00 in Snow Light Snow
2:03 AM 28.4 °F 16.2 °F 26.6 °F 93% 30.11 in 1.5 mi South 17.3 mph 24.2 mph 0.00 in Snow Light Snow
2:21 AM 26.6 °F 14.7 °F 26.6 °F 100% 30.11 in 2.0 mi South 15.0 mph 20.7 mph 0.00 in Snow Light Snow
2:30 AM 28.4 °F 17.0 °F 26.6 °F 93% 30.10 in 1.8 mi South 15.0 mph - 0.00 in Snow Light Snow
2:49 AM 26.6 °F 14.3 °F 26.6 °F 100% 30.09 in 2.0 mi South 16.1 mph - 0.00 in Snow Light Snow
2:58 AM 27.0 °F 15.6 °F 27.0 °F 100% 30.12 in 2.0 mi South 13.8 mph - 0.00 in Snow Light Snow
3:23 AM 26.6 °F 15.2 °F 26.6 °F 100% 30.07 in 1.8 mi SSE 13.8 mph 20.7 mph 0.00 in Snow Light Snow
3:54 AM 26.6 °F 15.2 °F 26.6 °F 100% 30.06 in 1.8 mi SSE 13.8 mph 23.0 mph 0.00 in Snow Light Snow
3:58 AM 27.0 °F 15.2 °F 27.0 °F 100% 30.10 in 1.8 mi SSE 15.0 mph 20.7 mph 0.00 in Snow Light Snow
4:21 AM 26.6 °F 14.3 °F 26.6 °F 100% 30.04 in 2.0 mi SSE 16.1 mph 21.9 mph 0.00 in Snow Light Snow
4:28 AM 26.6 °F 13.8 °F 26.6 °F 100% 30.04 in 3.0 mi SSE 17.3 mph 23.0 mph 0.00 in Snow Light Snow
4:52 AM 26.6 °F 15.7 °F 26.6 °F 100% 30.04 in 2.5 mi SSE 12.7 mph 24.2 mph 0.00 in Snow Light Snow
4:58 AM 27.0 °F 15.6 °F 26.1 °F 96% 30.07 in 3.0 mi SE 13.8 mph - 0.00 in Snow Light Snow
5:18 AM 26.6 °F 14.3 °F 26.6 °F 100% 30.02 in 2.5 mi SE 16.1 mph 21.9 mph 0.00 in Snow Light Snow
5:23 AM 26.6 °F 13.4 °F 26.6 °F 100% 30.02 in 2.5 mi SE 18.4 mph 24.2 mph 0.00 in Snow Light Snow
5:48 AM 26.6 °F 13.4 °F 26.6 °F 100% 30.00 in 3.0 mi SE 18.4 mph 26.5 mph 0.00 in Snow Light Snow
5:58 AM 27.0 °F 13.9 °F 26.1 °F 96% 30.04 in 3.0 mi SE 18.4 mph 27.6 mph 0.00 in Snow Light Snow
6:03 AM 26.6 °F 13.4 °F 26.6 °F 100% 30.00 in 3.0 mi SE 18.4 mph 27.6 mph 0.00 in Snow Light Snow
6:25 AM 26.6 °F 13.4 °F 26.6 °F 100% 29.99 in 3.0 mi SE 18.4 mph 31.1 mph 0.00 in Snow Light Snow
6:33 AM 26.6 °F 12.7 °F 26.6 °F 100% 29.98 in 3.0 mi SE 20.7 mph 29.9 mph 0.00 in Snow Light Snow
6:51 AM 26.6 °F 12.0 °F 26.6 °F 100% 29.96 in 3.0 mi SE 23.0 mph 31.1 mph 0.00 in Snow Light Snow
6:58 AM 27.0 °F 13.5 °F 26.1 °F 96% 30.00 in 3.0 mi SE 19.6 mph 31.1 mph 0.00 in Snow Light Snow
7:09 AM 26.6 °F 12.7 °F 26.6 °F 100% 29.95 in 2.5 mi SE 20.7 mph 28.8 mph 0.00 in   Overcast
7:14 AM 26.6 °F 12.4 °F 26.6 °F 100% 29.95 in 3.0 mi SE 21.9 mph 28.8 mph 0.00 in   Overcast
7:58 AM 28.0 °F 13.6 °F 27.0 °F 96% 29.96 in 4.0 mi SE 24.2 mph 28.8 mph 0.00 in   Overcast
8:58 AM 28.0 °F 14.3 °F 27.0 °F 96% 29.93 in 5.0 mi SE 21.9 mph 28.8 mph 0.00 in   Overcast
9:58 AM 28.0 °F 14.6 °F 27.0 °F 96% 29.92 in 2.5 mi SE 20.7 mph 28.8 mph 0.00 in   Overcast
10:08 AM 28.4 °F 16.6 °F 26.6 °F 93% 29.88 in 1.2 mi SE 16.1 mph 29.9 mph 0.00 in Snow Light Snow
10:13 AM 28.4 °F 14.7 °F 26.6 °F 93% 29.88 in 1.0 mi SE 21.9 mph 29.9 mph 0.00 in Snow Light Snow
10:42 AM 28.4 °F 15.8 °F 26.6 °F 93% 29.87 in 1.2 mi SE 18.4 mph 33.4 mph 0.00 in Snow Light Snow
10:58 AM 28.0 °F 13.6 °F 27.0 °F 96% 29.90 in 1.8 mi SE 24.2 mph 32.2 mph 0.00 in Snow Light Snow
11:39 AM 28.4 °F 15.1 °F 26.6 °F 93% 29.84 in 1.0 mi SE 20.7 mph 28.8 mph 0.00 in Snow Light Snow
11:47 AM 28.4 °F 15.1 °F 28.4 °F 100% 29.84 in 0.8 mi SE 20.7 mph 28.8 mph 0.00 in Snow Light Snow
11:58 AM 28.0 °F 14.6 °F 28.0 °F 100% 29.87 in 0.8 mi SE 20.7 mph 31.1 mph 0.00 in Snow Light Snow
12:02 PM 28.4 °F 15.4 °F 28.4 °F 100% 29.83 in 1.0 mi SE 19.6 mph 31.1 mph 0.00 in Snow Light Snow
12:13 PM 28.4 °F 15.8 °F 28.4 °F 100% 29.82 in 1.2 mi SE 18.4 mph 25.3 mph 0.00 in Snow Light Snow
12:36 PM 28.4 °F 15.4 °F 28.4 °F 100% 29.80 in 1.0 mi SE 19.6 mph 29.9 mph 0.00 in Snow Light Snow
12:57 PM 28.0 °F 15.3 °F 28.0 °F 100% 29.82 in 1.2 mi SE 18.4 mph 28.8 mph 0.00 in Snow Light Snow
1:11 PM 28.4 °F 15.1 °F 28.4 °F 100% 29.78 in 1.0 mi SE 20.7 mph 29.9 mph 0.00 in Snow Light Snow
1:23 PM 28.4 °F 15.1 °F 28.4 °F 100% 29.76 in 1.2 mi SE 20.7 mph 29.9 mph 0.00 in Snow Light Snow
1:40 PM 28.4 °F 14.4 °F 28.4 °F 100% 29.75 in 1.0 mi SE 23.0 mph 28.8 mph 0.00 in Snow Light Snow
1:49 PM 28.4 °F 15.8 °F 28.4 °F 100% 29.75 in 0.8 mi SE 18.4 mph 28.8 mph 0.00 in Snow Light Snow
1:58 PM 28.9 °F 15.8 °F 28.0 °F 96% 29.79 in 0.8 mi SE 20.7 mph 29.9 mph 0.00 in Snow Light Snow
2:49 PM 28.4 °F 15.8 °F 28.4 °F 100% 29.71 in 0.8 mi SE 18.4 mph 31.1 mph 0.00 in Snow Light Snow
2:58 PM 28.9 °F 14.8 °F 28.0 °F 96% 29.74 in 0.8 mi SE 24.2 mph 31.1 mph 0.00 in Snow Light Snow
3:11 PM 28.4 °F 14.7 °F 28.4 °F 100% 29.69 in 0.5 mi SE 21.9 mph 31.1 mph 0.00 in Fog , Snow Snow
3:24 PM 28.4 °F 14.4 °F 28.4 °F 100% 29.68 in 0.8 mi SE 23.0 mph 31.1 mph 0.00 in Snow Light Snow
3:32 PM 28.4 °F 14.7 °F 28.4 °F 100% 29.68 in 1.0 mi SE 21.9 mph 31.1 mph 0.00 in Snow Light Snow
3:36 PM 28.4 °F 15.1 °F 28.4 °F 100% 29.68 in 1.2 mi SE 20.7 mph 31.1 mph 0.00 in Snow Light Snow
3:50 PM 28.4 °F 15.1 °F 28.4 °F 100% 29.67 in 1.0 mi SE 20.7 mph 29.9 mph 0.00 in Snow Light Snow
3:58 PM 28.9 °F 15.4 °F 28.9 °F 100% 29.70 in 1.0 mi SE 21.9 mph 31.1 mph 0.00 in   Overcast
4:03 PM 28.4 °F 15.1 °F 28.4 °F 100% 29.67 in 1.2 mi SE 20.7 mph 31.1 mph 0.00 in   Overcast
4:40 PM 28.4 °F 14.7 °F 28.4 °F 100% 29.62 in 2.0 mi SE 21.9 mph 33.4 mph N/A   Mist
4:56 PM 28.4 °F 14.4 °F 28.4 °F 100% 29.60 in 1.8 mi SSE 23.0 mph 32.2 mph N/A Snow Light Snow
4:58 PM 28.9 °F 14.8 °F 28.9 °F 100% 29.61 in 1.8 mi SSE 24.2 mph 32.2 mph N/A Snow Light Snow
5:14 PM 30.2 °F 16.8 °F 28.4 °F 93% 29.60 in 2.0 mi SE 23.0 mph 33.4 mph 0.00 in   Overcast
5:24 PM 30.2 °F 17.8 °F 28.4 °F 93% 29.59 in 1.5 mi SSE 19.6 mph 31.1 mph 0.00 in   Overcast
5:49 PM 30.2 °F 17.4 °F 30.2 °F 100% 29.59 in 2.0 mi SSE 20.7 mph 27.6 mph 0.00 in   Overcast
5:54 PM 30.2 °F 17.8 °F 30.2 °F 100% 29.59 in 4.0 mi SSE 19.6 mph 27.6 mph 0.00 in   Overcast
5:58 PM 30.9 °F 18.7 °F 30.9 °F 100% 29.59 in 4.0 mi SSE 19.6 mph 27.6 mph 0.00 in   Overcast
6:05 PM 30.2 °F 18.1 °F 30.2 °F 100% 29.59 in 4.0 mi SSE 18.4 mph 27.6 mph 0.00 in   Overcast
6:09 PM 30.2 °F 18.1 °F 30.2 °F 100% 29.59 in 4.0 mi SSE 18.4 mph 24.2 mph 0.00 in Snow Light Snow
6:21 PM 30.2 °F 17.8 °F 30.2 °F 100% 29.58 in 2.0 mi SSE 19.6 mph 28.8 mph 0.00 in   Overcast
6:28 PM 30.2 °F 18.1 °F 30.2 °F 100% 29.57 in 1.5 mi SE 18.4 mph 29.9 mph 0.00 in   Overcast
6:39 PM 30.2 °F 18.5 °F 30.2 °F 100% 29.57 in 1.2 mi SE 17.3 mph 25.3 mph 0.00 in   Overcast
6:58 PM 30.9 °F 19.1 °F 30.9 °F 100% 29.56 in 1.5 mi SE 18.4 mph 25.3 mph 0.00 in Snow Light Snow
7:07 PM 32.0 °F 20.5 °F 30.2 °F 93% 29.54 in 1.8 mi SE 18.4 mph 25.3 mph 0.00 in Snow Light Snow
7:15 PM 30.2 °F 18.5 °F 30.2 °F 100% 29.53 in 1.0 mi SSE 17.3 mph 25.3 mph 0.00 in Snow Light Snow
7:49 PM 32.0 °F 21.6 °F 32.0 °F 100% 29.52 in 0.8 mi SSE 15.0 mph 21.9 mph 0.00 in Snow Light Snow
7:58 PM 32.0 °F 21.6 °F 32.0 °F 100% 29.53 in 0.5 mi SSE 15.0 mph - 0.00 in Fog , Snow Light Snow
8:13 PM 33.8 °F 24.3 °F 32.0 °F 93% 29.52 in 0.2 mi SSE 13.8 mph - 0.00 in Fog , Snow Light Snow
8:58 PM 34.0 °F 24.6 °F 33.1 °F 96% 29.53 in 0.2 mi SSW 13.8 mph - 0.00 in Fog , Snow Light Snow
9:22 PM 33.8 °F 23.5 °F 33.8 °F 100% 29.52 in 0.5 mi SW 16.1 mph 20.7 mph 0.00 in Fog , Rain Light Rain
9:26 PM 33.8 °F 23.9 °F 33.8 °F 100% 29.52 in 0.8 mi SW 15.0 mph 20.7 mph 0.00 in Rain Light Rain
9:33 PM 33.8 °F 23.5 °F 33.8 °F 100% 29.52 in 0.5 mi SW 16.1 mph 21.9 mph 0.00 in Fog Fog
9:58 PM 35.1 °F 25.2 °F 34.0 °F 96% 29.52 in 0.5 mi SW 16.1 mph - 0.00 in Fog , Rain Light Rain
10:30 PM 35.6 °F 28.0 °F 35.6 °F 100% 29.54 in 0.8 mi SW 10.4 mph - 0.00 in Rain Light Rain
10:58 PM 35.1 °F 26.4 °F 35.1 °F 100% 29.54 in 0.5 mi SSW 12.7 mph - 0.00 in Fog Fog
11:05 PM 35.6 °F 26.6 °F 35.6 °F 100% 29.53 in 0.8 mi SSW 13.8 mph 19.6 mph 0.00 in   Overcast
11:18 PM 35.6 °F 26.6 °F 35.6 °F 100% 29.54 in 0.5 mi SSW 13.8 mph - 0.00 in Fog , Rain Light Rain
11:41 PM 35.6 °F 26.6 °F 35.6 °F 100% 29.55 in 0.8 mi WSW 13.8 mph - 0.00 in Rain Light Rain
11:47 PM 35.6 °F 26.6 °F 35.6 °F 100% 29.55 in 1.0 mi SW 13.8 mph - 0.00 in   Overcast
11:58 PM 36.0 °F 26.3 °F 36.0 °F 100% 29.55 in 1.0 mi SW 16.1 mph - 0.00 in   Overcast